Terminal Aerodrome Forecast
Issued by NWS

Home | Current Version | Previous Version | Text Only | Print | Product List | Glossary Off
Versions: 1 2 3 4 5 6 7 8 9 10 11 12 13 14 15 16 17

000
FTUS43 KGRB 271700
TAFCWA
TAF
KCWA 271720Z 2718/2818 19008KT P6SM FEW060 SCT250
     FM280000 15003KT P6SM SCT250
     FM280800 00000KT 6SM BR BKN200
      TEMPO 2809/2813 1SM BR FEW003
     FM281400 22004KT P6SM SCT050 BKN200=

USA.gov is the U.S. government's official web portal to all federal, state and local government web resources and services.